createdAt,value
2018-06-19T00:02:20.077Z,98728.00
2018-06-19T00:04:48.618Z,98729.00
2018-06-19T00:07:17.143Z,98727.00
2018-06-19T00:09:45.745Z,98727.00
2018-06-19T00:12:14.273Z,98718.00
2018-06-19T00:14:42.837Z,98723.00
2018-06-19T00:17:11.414Z,98727.00
2018-06-19T00:19:46.146Z,98716.00
2018-06-19T00:22:14.921Z,98721.00
2018-06-19T00:24:43.822Z,98719.00
2018-06-19T00:27:12.736Z,98721.00
2018-06-19T00:29:41.627Z,98723.00
2018-06-19T00:32:10.434Z,98722.00
2018-06-19T00:34:38.968Z,98718.00
2018-06-19T00:37:07.476Z,98720.00
2018-06-19T00:39:36.016Z,98719.00
2018-06-19T00:42:04.839Z,98715.00
2018-06-19T00:44:38.992Z,98717.00
2018-06-19T00:47:07.866Z,98712.00
2018-06-19T00:49:36.740Z,98716.00
2018-06-19T00:52:05.606Z,98718.00
2018-06-19T00:54:34.470Z,98716.00
2018-06-19T00:57:03.443Z,98716.00
2018-06-19T00:59:32.276Z,98716.00
2018-06-19T01:02:01.475Z,98717.00
2018-06-19T01:04:30.360Z,98715.00
2018-06-19T01:06:59.236Z,98718.00
2018-06-19T01:09:28.120Z,98717.00
2018-06-19T01:11:56.995Z,98723.00
2018-06-19T01:14:25.858Z,98724.00
2018-06-19T01:16:54.728Z,98716.00
2018-06-19T01:19:23.643Z,98724.00
2018-06-19T01:21:52.502Z,98721.00
2018-06-19T01:24:21.480Z,98727.00
2018-06-19T01:26:50.353Z,98732.00
2018-06-19T01:29:19.210Z,98727.00
2018-06-19T01:31:48.003Z,98725.00
2018-06-19T01:34:16.550Z,98731.00
2018-06-19T01:36:45.123Z,98733.00
2018-06-19T01:39:13.666Z,98735.00
2018-06-19T01:41:42.196Z,98737.00
2018-06-19T01:44:10.726Z,98737.00
2018-06-19T01:46:39.257Z,98735.00
2018-06-19T01:49:07.781Z,98734.00
2018-06-19T01:51:36.531Z,98732.00
2018-06-19T01:54:05.432Z,98727.00
2018-06-19T01:56:34.291Z,98730.00
2018-06-19T01:59:03.154Z,98727.00
2018-06-19T02:01:32.001Z,98733.00
2018-06-19T02:04:00.863Z,98731.00
2018-06-19T02:06:29.706Z,98729.00
2018-06-19T02:08:58.643Z,98734.00
2018-06-19T02:11:27.494Z,98738.00
2018-06-19T02:13:56.356Z,98745.00
2018-06-19T02:16:25.216Z,98744.00
2018-06-19T02:18:54.088Z,98750.00
2018-06-19T02:21:22.910Z,98743.00
2018-06-19T02:23:51.775Z,98742.00
2018-06-19T02:26:20.636Z,98742.00
2018-06-19T02:28:49.483Z,98748.00
2018-06-19T02:31:18.434Z,98740.00
2018-06-19T02:33:47.321Z,98743.00
2018-06-19T02:36:15.905Z,98746.00
2018-06-19T02:38:44.731Z,98746.00
2018-06-19T02:41:13.350Z,98751.00
2018-06-19T02:43:41.927Z,98757.00
2018-06-19T02:46:10.464Z,98755.00
2018-06-19T02:48:38.991Z,98756.00
2018-06-19T02:51:07.748Z,98764.00
2018-06-19T02:53:36.638Z,98759.00
2018-06-19T02:56:05.492Z,98757.00
2018-06-19T02:58:34.351Z,98755.00
2018-06-19T03:01:03.067Z,98749.00
2018-06-19T03:03:31.606Z,98758.00
2018-06-19T03:06:00.106Z,98758.00
2018-06-19T03:08:28.653Z,98756.00
2018-06-19T03:10:57.418Z,98758.00
2018-06-19T03:13:26.301Z,98757.00
2018-06-19T03:15:55.172Z,98752.00
2018-06-19T03:18:24.059Z,98757.00
2018-06-19T03:20:52.733Z,98756.00
2018-06-19T03:23:21.251Z,98759.00
2018-06-19T03:25:49.780Z,98762.00
2018-06-19T03:28:18.337Z,98765.00
2018-06-19T03:30:46.876Z,98761.00
2018-06-19T03:33:15.448Z,98761.00
2018-06-19T03:35:44.293Z,98768.00
2018-06-19T03:38:12.849Z,98767.00
2018-06-19T03:40:41.438Z,98766.00
2018-06-19T03:43:09.943Z,98764.00
2018-06-19T03:45:38.508Z,98772.00
2018-06-19T03:48:07.060Z,98777.00
2018-06-19T03:50:35.566Z,98776.00
2018-06-19T03:53:04.135Z,98779.00
2018-06-19T03:55:32.701Z,98784.00
2018-06-19T03:58:01.085Z,98790.00
2018-06-19T04:00:29.625Z,98794.00
2018-06-19T04:02:58.155Z,98784.00
2018-06-19T04:05:26.535Z,98784.00
2018-06-19T04:07:55.078Z,98791.00
2018-06-19T04:10:23.659Z,98782.00
2018-06-19T04:12:52.198Z,98785.00
2018-06-19T04:15:20.741Z,98790.00
2018-06-19T04:17:49.350Z,98794.00
2018-06-19T04:20:17.903Z,98792.00
2018-06-19T04:22:46.500Z,98799.00
2018-06-19T04:25:15.097Z,98805.00
2018-06-19T04:27:43.685Z,98808.00
2018-06-19T04:30:12.489Z,98810.00
2018-06-19T04:32:41.360Z,98805.00
2018-06-19T04:35:10.245Z,98812.00
2018-06-19T04:37:39.145Z,98814.00
2018-06-19T04:40:07.816Z,98818.00
2018-06-19T04:42:36.205Z,98817.00
2018-06-19T04:45:05.053Z,98822.00
2018-06-19T04:47:33.649Z,98826.00
2018-06-19T04:50:02.113Z,98826.00
2018-06-19T04:52:30.690Z,98830.00
2018-06-19T04:54:59.327Z,98831.00
2018-06-19T04:57:28.127Z,98839.00
2018-06-19T04:59:56.867Z,98841.00
2018-06-19T05:02:25.770Z,98833.00
2018-06-19T05:04:54.708Z,98834.00
2018-06-19T05:07:23.573Z,98837.00
2018-06-19T05:09:52.259Z,98829.00
2018-06-19T05:12:20.821Z,98833.00
2018-06-19T05:14:49.421Z,98828.00
2018-06-19T05:17:18.090Z,98838.00
2018-06-19T05:19:46.727Z,98834.00
2018-06-19T05:22:15.733Z,98841.00
2018-06-19T05:24:44.576Z,98846.00
2018-06-19T05:27:13.525Z,98848.00
2018-06-19T05:29:42.385Z,98848.00
2018-06-19T05:32:11.376Z,98850.00
2018-06-19T05:34:40.296Z,98855.00
2018-06-19T05:37:09.175Z,98855.00
2018-06-19T05:39:37.921Z,98859.00
2018-06-19T05:42:06.734Z,98857.00
2018-06-19T05:44:35.328Z,98862.00
2018-06-19T05:47:04.075Z,98862.00
2018-06-19T05:49:32.733Z,98863.00
2018-06-19T05:52:01.161Z,98868.00
2018-06-19T05:54:29.733Z,98866.00
2018-06-19T05:56:58.323Z,98868.00
2018-06-19T05:59:27.143Z,98869.00
2018-06-19T06:01:56.054Z,98874.00
2018-06-19T06:04:24.645Z,98870.00
2018-06-19T06:06:53.556Z,98871.00
2018-06-19T06:09:22.254Z,98875.00
2018-06-19T06:11:50.781Z,98870.00
2018-06-19T06:14:19.530Z,98876.00
2018-06-19T06:16:48.114Z,98876.00
2018-06-19T06:19:16.950Z,98882.00
2018-06-19T06:21:45.670Z,98885.00
2018-06-19T06:24:14.573Z,98886.00
2018-06-19T06:26:43.539Z,98890.00
2018-06-19T06:29:12.276Z,98887.00
2018-06-19T06:31:40.871Z,98888.00
2018-06-19T06:34:09.466Z,98886.00
2018-06-19T06:36:38.113Z,98887.00
2018-06-19T06:39:08.164Z,98887.00
2018-06-19T06:41:37.403Z,98889.00
2018-06-19T06:44:06.483Z,98890.00
2018-06-19T06:46:35.464Z,98890.00
2018-06-19T06:49:04.151Z,98882.00
2018-06-19T06:51:32.707Z,98887.00
2018-06-19T06:54:01.301Z,98883.00
2018-06-19T06:56:29.981Z,98887.00
2018-06-19T06:58:58.546Z,98883.00
2018-06-19T07:01:27.061Z,98880.00
2018-06-19T07:03:55.685Z,98884.00
2018-06-19T07:06:24.293Z,98885.00
2018-06-19T07:08:52.845Z,98880.00
2018-06-19T07:11:21.394Z,98883.00
2018-06-19T07:13:50.017Z,98876.00
2018-06-19T07:16:18.684Z,98879.00
2018-06-19T07:18:47.232Z,98879.00
2018-06-19T07:21:15.777Z,98877.00
2018-06-19T07:23:44.371Z,98874.00
2018-06-19T07:26:13.014Z,98872.00
2018-06-19T07:28:41.864Z,98878.00
2018-06-19T07:31:10.749Z,98869.00
2018-06-19T07:33:39.641Z,98868.00
2018-06-19T07:36:08.529Z,98872.00
2018-06-19T07:38:37.236Z,98865.00
2018-06-19T07:41:05.816Z,98860.00
2018-06-19T07:43:34.431Z,98860.00
2018-06-19T07:46:02.982Z,98860.00
2018-06-19T07:48:31.591Z,98860.00
2018-06-19T07:51:00.186Z,98862.00
2018-06-19T07:53:29.009Z,98861.00
2018-06-19T07:55:58.303Z,98865.00
2018-06-19T07:58:26.893Z,98866.00
2018-06-19T08:00:55.473Z,98860.00
2018-06-19T08:03:24.021Z,98863.00
2018-06-19T08:05:52.891Z,98857.00
2018-06-19T08:08:21.686Z,98859.00
2018-06-19T08:10:50.584Z,98856.00
2018-06-19T08:13:19.481Z,98858.00
2018-06-19T08:15:48.509Z,98857.00
2018-06-19T08:18:17.421Z,98859.00
2018-06-19T08:20:46.336Z,98855.00
2018-06-19T08:23:14.954Z,98852.00
2018-06-19T08:25:43.862Z,98855.00
2018-06-19T08:28:12.916Z,98860.00
2018-06-19T08:30:41.982Z,98849.00
2018-06-19T08:33:10.932Z,98856.00
2018-06-19T08:35:39.531Z,98851.00
2018-06-19T08:38:08.412Z,98853.00
2018-06-19T08:40:37.343Z,98838.00
2018-06-19T08:43:06.281Z,98839.00
2018-06-19T08:45:35.196Z,98842.00
2018-06-19T08:48:03.947Z,98849.00
2018-06-19T08:50:32.514Z,98847.00
2018-06-19T08:53:01.096Z,98840.00
2018-06-19T08:55:29.696Z,98836.00
2018-06-19T08:57:58.633Z,98835.00
2018-06-19T09:00:27.657Z,98834.00
2018-06-19T09:02:56.580Z,98836.00
2018-06-19T09:05:25.508Z,98835.00
2018-06-19T09:07:54.581Z,98829.00
2018-06-19T09:10:23.254Z,98825.00
2018-06-19T09:12:51.893Z,98835.00
2018-06-19T09:15:20.745Z,98835.00
2018-06-19T09:17:49.386Z,98838.00
2018-06-19T09:20:18.013Z,98836.00
2018-06-19T09:22:46.604Z,98835.00
2018-06-19T09:25:15.199Z,98836.00
2018-06-19T09:27:43.967Z,98837.00
2018-06-19T09:30:12.951Z,98834.00
2018-06-19T09:32:41.951Z,98832.00
2018-06-19T09:35:11.019Z,98833.00
2018-06-19T09:37:39.764Z,98832.00
2018-06-19T09:40:08.380Z,98833.00
2018-06-19T09:42:37.431Z,98829.00
2018-06-19T09:45:06.110Z,98835.00
2018-06-19T09:47:35.484Z,98827.00
2018-06-19T09:50:04.378Z,98822.00
2018-06-19T09:52:33.243Z,98830.00
2018-06-19T09:55:02.101Z,98662.00
2018-06-19T09:57:31.109Z,98829.00
2018-06-19T10:00:00.118Z,98833.00
2018-06-19T10:02:29.139Z,98829.00
2018-06-19T10:04:58.146Z,98828.00
2018-06-19T10:07:27.123Z,98826.00
2018-06-19T10:09:56.135Z,98831.00
2018-06-19T10:12:25.106Z,98833.00
2018-06-19T10:14:54.213Z,98837.00
2018-06-19T10:17:23.434Z,98832.00
2018-06-19T10:19:52.386Z,98825.00
2018-06-19T10:22:21.448Z,98831.00
2018-06-19T10:24:50.439Z,98836.00
2018-06-19T10:27:19.096Z,98831.00
2018-06-19T10:29:47.783Z,98830.00
2018-06-19T10:32:16.824Z,98830.00
2018-06-19T10:34:45.558Z,98824.00
2018-06-19T10:37:14.365Z,98819.00
2018-06-19T10:39:42.966Z,98821.00
2018-06-19T10:42:11.960Z,98821.00
2018-06-19T10:44:40.866Z,98812.00
2018-06-19T10:47:09.571Z,98816.00
2018-06-19T10:49:38.359Z,98828.00
2018-06-19T10:52:06.896Z,98814.00
2018-06-19T10:54:35.524Z,98817.00
2018-06-19T10:57:04.549Z,98805.00
2018-06-19T10:59:33.631Z,98811.00
2018-06-19T11:02:02.562Z,98802.00
2018-06-19T11:04:31.449Z,98805.00
2018-06-19T11:07:00.321Z,98807.00
2018-06-19T11:09:29.486Z,98803.00
2018-06-19T11:11:58.390Z,98811.00
2018-06-19T11:14:28.546Z,98800.00
2018-06-19T11:16:57.211Z,98800.00
2018-06-19T11:19:25.845Z,98812.00
2018-06-19T11:21:54.366Z,98802.00
2018-06-19T11:24:22.966Z,98790.00
2018-06-19T11:26:51.841Z,98795.00
2018-06-19T11:29:21.174Z,98803.00
2018-06-19T11:31:50.201Z,98793.00
2018-06-19T11:34:19.153Z,98801.00
2018-06-19T11:36:47.713Z,98802.00
2018-06-19T11:39:16.273Z,98803.00
2018-06-19T11:41:44.894Z,98806.00
2018-06-19T11:44:13.663Z,98797.00
2018-06-19T11:46:43.121Z,98798.00
2018-06-19T11:49:12.860Z,98797.00
2018-06-19T11:51:41.884Z,98800.00
2018-06-19T11:54:11.807Z,98802.00
2018-06-19T11:56:40.722Z,98798.00
2018-06-19T11:59:09.411Z,98802.00
2018-06-19T12:01:38.101Z,98795.00
2018-06-19T12:04:07.234Z,98798.00
2018-06-19T12:06:36.087Z,98802.00
2018-06-19T12:09:06.354Z,98786.00
2018-06-19T12:11:35.142Z,98787.00
2018-06-19T12:14:04.103Z,98787.00
2018-06-19T12:16:33.347Z,98785.00
2018-06-19T12:19:02.497Z,98784.00
2018-06-19T12:21:31.474Z,98782.00
2018-06-19T12:24:00.725Z,98777.00
2018-06-19T12:26:29.874Z,98779.00
2018-06-19T12:28:58.963Z,98778.00
2018-06-19T12:31:27.986Z,98776.00
2018-06-19T12:33:57.131Z,98777.00
2018-06-19T12:36:26.277Z,98778.00
2018-06-19T12:38:55.359Z,98787.00
2018-06-19T12:41:39.861Z,98780.00
2018-06-19T12:44:08.981Z,98780.00
2018-06-19T12:46:38.749Z,98790.00
2018-06-19T12:49:08.276Z,98793.00
2018-06-19T12:52:02.881Z,98787.00
2018-06-19T12:56:43.842Z,98795.00
2018-06-19T12:59:13.046Z,98784.00
2018-06-19T13:01:41.980Z,98788.00
2018-06-19T13:04:27.610Z,98783.00
2018-06-19T13:06:56.309Z,98780.00
2018-06-19T13:09:24.899Z,98775.00
2018-06-19T13:11:53.610Z,98774.00
2018-06-19T13:14:39.132Z,98781.00
2018-06-19T13:17:24.811Z,98782.00
2018-06-19T13:20:10.362Z,98787.00
2018-06-19T13:22:39.336Z,98775.00
2018-06-19T13:25:08.321Z,98770.00
2018-06-19T13:27:37.311Z,98780.00
2018-06-19T13:30:23.173Z,98771.00
2018-06-19T13:32:52.084Z,98766.00
2018-06-19T13:35:21.048Z,98775.00
2018-06-19T13:37:50.146Z,98775.00
2018-06-19T13:42:37.741Z,98776.00
2018-06-19T13:45:07.820Z,98741.00
2018-06-19T13:47:36.567Z,98774.00
2018-06-19T13:50:05.144Z,98769.00
2018-06-19T13:52:33.809Z,98768.00
2018-06-19T13:57:30.696Z,98768.00
2018-06-19T14:00:00.674Z,98765.00
2018-06-19T14:02:29.303Z,98764.00
2018-06-19T14:04:58.108Z,98759.00
2018-06-19T14:07:27.761Z,98756.00
2018-06-19T14:10:20.256Z,98748.00
2018-06-19T14:12:52.493Z,98752.00
2018-06-19T14:15:22.044Z,98751.00
2018-06-19T14:17:51.072Z,98746.00
2018-06-19T14:20:20.031Z,98746.00
2018-06-19T14:22:49.128Z,98741.00
2018-06-19T14:25:18.521Z,98743.00
2018-06-19T14:27:47.436Z,98738.00
2018-06-19T14:30:16.012Z,98741.00
2018-06-19T14:32:45.437Z,98742.00
2018-06-19T14:35:14.119Z,98744.00
2018-06-19T14:37:43.312Z,98739.00
2018-06-19T14:40:12.609Z,98736.00
2018-06-19T14:42:41.583Z,98734.00
2018-06-19T14:45:10.976Z,98730.00
2018-06-19T14:47:39.847Z,98731.00
2018-06-19T14:50:08.524Z,98722.00
2018-06-19T14:52:37.265Z,98722.00
2018-06-19T14:55:06.954Z,98722.00
2018-06-19T14:57:35.586Z,98726.00
2018-06-19T15:00:05.264Z,98719.00
2018-06-19T15:02:33.874Z,98715.00
2018-06-19T15:05:02.491Z,98717.00
2018-06-19T15:07:53.196Z,98711.00
2018-06-19T15:10:22.619Z,98714.00
2018-06-19T15:12:51.534Z,98713.00
2018-06-19T15:15:20.233Z,98719.00
2018-06-19T15:17:57.595Z,98716.00
2018-06-19T15:20:27.121Z,98716.00
2018-06-19T15:22:55.736Z,98711.00
2018-06-19T15:25:24.361Z,98712.00
2018-06-19T15:27:53.288Z,98713.00
2018-06-19T15:30:22.348Z,98708.00
2018-06-19T15:32:51.231Z,98702.00
2018-06-19T15:35:20.303Z,98705.00
2018-06-19T15:37:49.230Z,98698.00
2018-06-19T15:40:18.209Z,98702.00
2018-06-19T15:42:47.225Z,98697.00
2018-06-19T15:45:16.166Z,98697.00
2018-06-19T15:47:45.348Z,98694.00
2018-06-19T15:50:14.016Z,98690.00
2018-06-19T15:52:43.598Z,98692.00
2018-06-19T15:55:12.312Z,98690.00
2018-06-19T15:57:41.181Z,98689.00
2018-06-19T16:00:10.293Z,98684.00
2018-06-19T16:02:39.275Z,98682.00
2018-06-19T16:05:08.274Z,98682.00
2018-06-19T16:07:42.093Z,98689.00
2018-06-19T16:10:11.241Z,98690.00
2018-06-19T16:12:40.203Z,98686.00
2018-06-19T16:15:10.168Z,98685.00
2018-06-19T16:17:39.147Z,98677.00
2018-06-19T16:20:08.266Z,98684.00
2018-06-19T16:22:37.242Z,98681.00
2018-06-19T16:25:06.241Z,98679.00
2018-06-19T16:27:35.234Z,98688.00
2018-06-19T16:30:04.366Z,98686.00
2018-06-19T16:32:33.271Z,98682.00
2018-06-19T16:35:02.217Z,98683.00
2018-06-19T16:37:31.131Z,98681.00
2018-06-19T16:40:00.017Z,98682.00
2018-06-19T16:42:28.940Z,98687.00
2018-06-19T16:44:57.848Z,98689.00
2018-06-19T16:47:26.664Z,98686.00
2018-06-19T16:49:55.344Z,98685.00
2018-06-19T16:52:24.062Z,98682.00
2018-06-19T16:54:52.794Z,98682.00
2018-06-19T16:57:21.431Z,98683.00
2018-06-19T16:59:50.268Z,98689.00
2018-06-19T17:02:18.960Z,98685.00
2018-06-19T17:04:47.596Z,98686.00
2018-06-19T17:07:16.261Z,98691.00
2018-06-19T17:09:44.886Z,98695.00
2018-06-19T17:12:13.448Z,98700.00
2018-06-19T17:14:42.013Z,98700.00
2018-06-19T17:17:10.654Z,98694.00
2018-06-19T17:19:39.216Z,98695.00
2018-06-19T17:22:07.760Z,98696.00
2018-06-19T17:24:36.326Z,98698.00
2018-06-19T17:27:05.076Z,98695.00
2018-06-19T17:29:34.030Z,98699.00
2018-06-19T17:32:02.894Z,98701.00
2018-06-19T17:34:31.808Z,98707.00
2018-06-19T17:37:00.533Z,98712.00
2018-06-19T17:39:29.123Z,98710.00
2018-06-19T17:41:57.699Z,98715.00
2018-06-19T17:44:26.334Z,98717.00
2018-06-19T17:46:55.178Z,98709.00
2018-06-19T17:49:24.600Z,98711.00
2018-06-19T17:51:53.176Z,98714.00
2018-06-19T17:54:21.743Z,98715.00
2018-06-19T17:56:50.576Z,98721.00
2018-06-19T17:59:19.434Z,98724.00
2018-06-19T18:01:48.503Z,98738.00
2018-06-19T18:04:17.626Z,98738.00
2018-06-19T18:06:46.518Z,98739.00
2018-06-19T18:09:15.526Z,98744.00
2018-06-19T18:11:44.504Z,98746.00
2018-06-19T18:14:13.421Z,98743.00
2018-06-19T18:16:42.956Z,98747.00
2018-06-19T18:19:11.904Z,98749.00
2018-06-19T18:21:40.920Z,98745.00
2018-06-19T18:24:09.997Z,98748.00
2018-06-19T18:26:39.425Z,98754.00
2018-06-19T18:29:08.533Z,98752.00
2018-06-19T18:31:37.504Z,98751.00
2018-06-19T18:34:06.595Z,98752.00
2018-06-19T18:36:35.507Z,98753.00
2018-06-19T18:39:06.971Z,98759.00
2018-06-19T18:41:36.006Z,98764.00
2018-06-19T18:44:05.051Z,98762.00
2018-06-19T18:46:34.121Z,98765.00
2018-06-19T18:49:02.760Z,98767.00
2018-06-19T18:51:31.329Z,98767.00
2018-06-19T18:54:00.069Z,98768.00
2018-06-19T18:56:28.889Z,98773.00
2018-06-19T18:58:57.801Z,98773.00
2018-06-19T19:01:26.760Z,98775.00
2018-06-19T19:03:55.817Z,98778.00
2018-06-19T19:06:24.933Z,98782.00
2018-06-19T19:08:54.175Z,98780.00
2018-06-19T19:11:23.226Z,98786.00
2018-06-19T19:13:52.261Z,98793.00
2018-06-19T19:17:27.403Z,98793.00
2018-06-19T19:19:56.193Z,98801.00
2018-06-19T19:22:24.857Z,98805.00
2018-06-19T19:24:53.561Z,98806.00
2018-06-19T19:27:27.691Z,98684.00
2018-06-19T19:29:56.349Z,98810.00
2018-06-19T19:32:25.414Z,98814.00
2018-06-19T19:34:54.049Z,98817.00
2018-06-19T19:37:28.563Z,98817.00
2018-06-19T19:39:57.463Z,98819.00
2018-06-19T19:42:26.459Z,98823.00
2018-06-19T19:44:55.443Z,98827.00
2018-06-19T19:47:30.244Z,98831.00
2018-06-19T19:49:59.163Z,98832.00
2018-06-19T19:52:28.241Z,98835.00
2018-06-19T19:54:57.322Z,98831.00
2018-06-19T19:57:32.716Z,98836.00
2018-06-19T20:00:01.436Z,98840.00
2018-06-19T20:02:30.157Z,98835.00
2018-06-19T20:04:59.074Z,98836.00
2018-06-19T20:07:27.883Z,98838.00
2018-06-19T20:09:56.596Z,98842.00
2018-06-19T20:12:25.216Z,98845.00
2018-06-19T20:14:54.148Z,98841.00
2018-06-19T20:17:23.079Z,98845.00
2018-06-19T20:19:51.836Z,98846.00
2018-06-19T20:22:20.621Z,98848.00
2018-06-19T20:24:49.238Z,98849.00
2018-06-19T20:27:17.881Z,98850.00
2018-06-19T20:29:46.964Z,98857.00
2018-06-19T20:32:16.869Z,98853.00
2018-06-19T20:34:46.263Z,98853.00
2018-06-19T20:37:15.266Z,98855.00
2018-06-19T20:39:44.168Z,98853.00
2018-06-19T20:42:12.819Z,98849.00
2018-06-19T20:44:41.864Z,98858.00
2018-06-19T20:47:10.273Z,98855.00
2018-06-19T20:49:38.924Z,98858.00
2018-06-19T20:52:08.602Z,98859.00
2018-06-19T20:54:37.454Z,98865.00
2018-06-19T20:57:06.224Z,98865.00
2018-06-19T20:59:35.079Z,98866.00
2018-06-19T21:02:03.859Z,98868.00
2018-06-19T21:04:32.503Z,98868.00
2018-06-19T21:07:01.121Z,98878.00
2018-06-19T21:09:30.069Z,98874.00
2018-06-19T21:11:59.164Z,98877.00
2018-06-19T21:14:28.648Z,98873.00
2018-06-19T21:16:57.687Z,98872.00
2018-06-19T21:19:26.496Z,98876.00
2018-06-19T21:21:55.406Z,98872.00
2018-06-19T21:24:24.074Z,98868.00
2018-06-19T21:26:52.794Z,98874.00
2018-06-19T21:29:21.524Z,98878.00
2018-06-19T21:31:50.534Z,98881.00
2018-06-19T21:34:30.378Z,98881.00
2018-06-19T21:36:59.544Z,98887.00
2018-06-19T21:39:30.867Z,98882.00
2018-06-19T21:42:00.112Z,98888.00
2018-06-19T21:44:29.025Z,98896.00
2018-06-19T21:50:13.461Z,98885.00
2018-06-19T21:52:42.136Z,98886.00
2018-06-19T21:55:10.675Z,98889.00
2018-06-19T21:57:39.615Z,98883.00
2018-06-19T22:00:08.561Z,98884.00
2018-06-19T22:02:37.403Z,98885.00
2018-06-19T22:05:06.298Z,98887.00
2018-06-19T22:07:35.212Z,98887.00
2018-06-19T22:10:04.245Z,98892.00
2018-06-19T22:12:33.329Z,98886.00
2018-06-19T22:15:02.264Z,98888.00
2018-06-19T22:17:31.358Z,98849.00
2018-06-19T22:20:00.329Z,98900.00
2018-06-19T22:22:29.266Z,98902.00
2018-06-19T22:24:58.211Z,98905.00
2018-06-19T22:27:27.093Z,98906.00
2018-06-19T22:29:56.041Z,98911.00
2018-06-19T22:32:25.053Z,98911.00
2018-06-19T22:34:53.973Z,98908.00
2018-06-19T22:37:23.043Z,98908.00
2018-06-19T22:39:51.954Z,98899.00
2018-06-19T22:42:20.908Z,98901.00
2018-06-19T22:44:49.808Z,98894.00
2018-06-19T22:47:18.723Z,98901.00
2018-06-19T22:49:47.736Z,98892.00
2018-06-19T22:52:16.660Z,98901.00
2018-06-19T22:54:46.309Z,98900.00
2018-06-19T22:57:14.986Z,98902.00
2018-06-19T22:59:43.563Z,98899.00
2018-06-19T23:02:12.483Z,98896.00
2018-06-19T23:04:41.545Z,98895.00
2018-06-19T23:07:10.079Z,98896.00
2018-06-19T23:09:38.614Z,98896.00
2018-06-19T23:12:07.131Z,98897.00
2018-06-19T23:14:35.673Z,98891.00
2018-06-19T23:17:04.493Z,98891.00
2018-06-19T23:19:33.401Z,98886.00
2018-06-19T23:22:02.328Z,98884.00
2018-06-19T23:24:31.263Z,98885.00
2018-06-19T23:26:59.946Z,98892.00
2018-06-19T23:29:28.628Z,98884.00
2018-06-19T23:31:57.280Z,98883.00
2018-06-19T23:34:25.909Z,98886.00
2018-06-19T23:36:54.528Z,98892.00
2018-06-19T23:39:23.165Z,98887.00
2018-06-19T23:41:51.786Z,98887.00
2018-06-19T23:44:20.803Z,98886.00
2018-06-19T23:47:19.100Z,98884.00
2018-06-19T23:49:48.056Z,98889.00
2018-06-19T23:52:17.081Z,98884.00
2018-06-19T23:54:46.026Z,98891.00
2018-06-19T23:57:14.685Z,98893.00
2018-06-19T23:59:43.885Z,98894.00
